sensor_id;sensor_type;location;lat;lon;timestamp;P1;durP1;ratioP1;P2;durP2;ratioP2
74753;SDS011;63271;53.340;-6.260;2022-10-31T07:03:04;15.40;;;2.30;;
74753;SDS011;63271;53.340;-6.260;2022-10-31T07:05:34;18.20;;;2.78;;
74753;SDS011;63271;53.340;-6.260;2022-10-31T07:08:00;13.50;;;1.77;;
74753;SDS011;63271;53.340;-6.260;2022-10-31T07:10:29;14.27;;;3.03;;
74753;SDS011;63271;53.340;-6.260;2022-10-31T07:12:58;14.88;;;1.85;;
74753;SDS011;63271;53.340;-6.260;2022-10-31T07:15:27;15.32;;;1.98;;
74753;SDS011;63271;53.340;-6.260;2022-10-31T07:17:58;19.58;;;2.05;;
74753;SDS011;63271;53.340;-6.260;2022-10-31T07:20:27;16.58;;;1.95;;
74753;SDS011;63271;53.340;-6.260;2022-10-31T07:22:52;19.23;;;2.33;;
74753;SDS011;63271;53.340;-6.260;2022-10-31T07:25:22;20.92;;;4.18;;
74753;SDS011;63271;53.340;-6.260;2022-10-31T07:27:48;20.75;;;2.67;;
74753;SDS011;63271;53.340;-6.260;2022-10-31T07:30:16;16.88;;;2.17;;
74753;SDS011;63271;53.340;-6.260;2022-10-31T07:32:45;16.70;;;2.55;;
74753;SDS011;63271;53.340;-6.260;2022-10-31T07:35:13;21.35;;;3.00;;
74753;SDS011;63271;53.340;-6.260;2022-10-31T07:37:40;18.90;;;2.90;;
74753;SDS011;63271;53.340;-6.260;2022-10-31T07:40:09;13.98;;;1.80;;
74753;SDS011;63271;53.340;-6.260;2022-10-31T07:42:35;21.25;;;2.85;;
74753;SDS011;63271;53.340;-6.260;2022-10-31T07:45:02;18.15;;;3.47;;
74753;SDS011;63271;53.340;-6.260;2022-10-31T07:47:28;14.32;;;2.28;;
74753;SDS011;63271;53.340;-6.260;2022-10-31T07:49:58;15.32;;;1.58;;
74753;SDS011;63271;53.340;-6.260;2022-10-31T07:52:24;14.98;;;2.08;;
74753;SDS011;63271;53.340;-6.260;2022-10-31T07:54:52;16.15;;;2.67;;
74753;SDS011;63271;53.340;-6.260;2022-10-31T07:57:20;20.65;;;2.65;;
74753;SDS011;63271;53.340;-6.260;2022-10-31T07:59:48;21.50;;;2.60;;
74753;SDS011;63271;53.340;-6.260;2022-10-31T08:02:16;14.88;;;2.35;;
74753;SDS011;63271;53.340;-6.260;2022-10-31T08:04:41;18.60;;;3.00;;
74753;SDS011;63271;53.340;-6.260;2022-10-31T08:07:07;18.05;;;3.13;;
74753;SDS011;63271;53.340;-6.260;2022-10-31T08:09:35;18.13;;;3.53;;
74753;SDS011;63271;53.340;-6.260;2022-10-31T08:12:03;15.50;;;2.80;;
74753;SDS011;63271;53.340;-6.260;2022-10-31T08:14:28;25.98;;;3.28;;
74753;SDS011;63271;53.340;-6.260;2022-10-31T08:16:56;22.60;;;3.30;;
74753;SDS011;63271;53.340;-6.260;2022-10-31T08:19:24;22.38;;;3.58;;
74753;SDS011;63271;53.340;-6.260;2022-10-31T08:21:52;21.17;;;3.25;;
74753;SDS011;63271;53.340;-6.260;2022-10-31T08:24:20;21.15;;;2.88;;
74753;SDS011;63271;53.340;-6.260;2022-10-31T08:26:48;20.15;;;2.63;;
74753;SDS011;63271;53.340;-6.260;2022-10-31T08:29:16;22.55;;;2.67;;
74753;SDS011;63271;53.340;-6.260;2022-10-31T08:31:42;16.83;;;3.22;;
74753;SDS011;63271;53.340;-6.260;2022-10-31T08:34:07;20.42;;;2.40;;
74753;SDS011;63271;53.340;-6.260;2022-10-31T08:36:35;15.75;;;3.33;;
74753;SDS011;63271;53.340;-6.260;2022-10-31T08:39:01;20.27;;;3.55;;
74753;SDS011;63271;53.340;-6.260;2022-10-31T08:41:26;20.15;;;2.80;;
74753;SDS011;63271;53.340;-6.260;2022-10-31T08:43:54;17.75;;;2.17;;
74753;SDS011;63271;53.340;-6.260;2022-10-31T08:46:20;14.75;;;2.45;;
74753;SDS011;63271;53.340;-6.260;2022-10-31T08:48:48;15.68;;;2.42;;
74753;SDS011;63271;53.340;-6.260;2022-10-31T08:51:18;23.33;;;3.50;;
74753;SDS011;63271;53.340;-6.260;2022-10-31T08:53:43;25.88;;;2.63;;
74753;SDS011;63271;53.340;-6.260;2022-10-31T08:56:11;22.58;;;2.90;;
74753;SDS011;63271;53.340;-6.260;2022-10-31T08:58:39;22.67;;;3.15;;
74753;SDS011;63271;53.340;-6.260;2022-10-31T09:01:05;21.70;;;3.15;;
74753;SDS011;63271;53.340;-6.260;2022-10-31T09:03:32;23.73;;;3.15;;
74753;SDS011;63271;53.340;-6.260;2022-10-31T09:05:58;17.25;;;2.15;;
74753;SDS011;63271;53.340;-6.260;2022-10-31T09:08:25;20.00;;;3.35;;
74753;SDS011;63271;53.340;-6.260;2022-10-31T09:10:55;21.50;;;2.72;;
74753;SDS011;63271;53.340;-6.260;2022-10-31T09:13:23;29.30;;;3.65;;
74753;SDS011;63271;53.340;-6.260;2022-10-31T09:15:49;17.60;;;2.60;;
74753;SDS011;63271;53.340;-6.260;2022-10-31T09:18:16;22.05;;;2.83;;
74753;SDS011;63271;53.340;-6.260;2022-10-31T09:20:43;15.15;;;2.03;;
74753;SDS011;63271;53.340;-6.260;2022-10-31T09:23:12;19.75;;;3.33;;
74753;SDS011;63271;53.340;-6.260;2022-10-31T09:25:39;16.00;;;3.22;;
74753;SDS011;63271;53.340;-6.260;2022-10-31T09:28:05;12.85;;;2.33;;
74753;SDS011;63271;53.340;-6.260;2022-10-31T09:30:35;20.50;;;3.13;;
74753;SDS011;63271;53.340;-6.260;2022-10-31T09:33:02;23.63;;;2.95;;
74753;SDS011;63271;53.340;-6.260;2022-10-31T09:35:36;11.98;;;2.40;;
74753;SDS011;63271;53.340;-6.260;2022-10-31T09:38:03;19.27;;;2.58;;
74753;SDS011;63271;53.340;-6.260;2022-10-31T09:40:43;10.75;;;2.08;;
74753;SDS011;63271;53.340;-6.260;2022-10-31T09:51:04;18.33;;;2.92;;
74753;SDS011;63271;53.340;-6.260;2022-10-31T09:56:17;19.42;;;2.40;;
74753;SDS011;63271;53.340;-6.260;2022-10-31T09:58:51;17.60;;;2.25;;
74753;SDS011;63271;53.340;-6.260;2022-10-31T10:01:39;21.33;;;2.92;;
74753;SDS011;63271;53.340;-6.260;2022-10-31T10:04:19;18.33;;;4.38;;
74753;SDS011;63271;53.340;-6.260;2022-10-31T10:06:53;12.80;;;2.22;;
74753;SDS011;63271;53.340;-6.260;2022-10-31T10:09:25;12.50;;;2.33;;
74753;SDS011;63271;53.340;-6.260;2022-10-31T10:14:53;18.13;;;3.38;;
74753;SDS011;63271;53.340;-6.260;2022-10-31T10:17:41;20.42;;;2.78;;
74753;SDS011;63271;53.340;-6.260;2022-10-31T10:20:18;17.67;;;2.47;;
74753;SDS011;63271;53.340;-6.260;2022-10-31T10:25:45;18.90;;;2.85;;
74753;SDS011;63271;53.340;-6.260;2022-10-31T10:30:49;17.98;;;2.92;;
74753;SDS011;63271;53.340;-6.260;2022-10-31T10:33:19;12.93;;;2.13;;
74753;SDS011;63271;53.340;-6.260;2022-10-31T10:35:49;14.23;;;3.08;;
74753;SDS011;63271;53.340;-6.260;2022-10-31T10:41:00;18.40;;;3.75;;
74753;SDS011;63271;53.340;-6.260;2022-10-31T10:43:34;16.27;;;2.60;;
74753;SDS011;63271;53.340;-6.260;2022-10-31T10:46:13;20.80;;;3.38;;
74753;SDS011;63271;53.340;-6.260;2022-10-31T10:57:27;19.00;;;3.22;;
74753;SDS011;63271;53.340;-6.260;2022-10-31T10:59:58;17.45;;;2.75;;
74753;SDS011;63271;53.340;-6.260;2022-10-31T11:02:26;17.25;;;2.55;;
74753;SDS011;63271;53.340;-6.260;2022-10-31T11:04:59;22.23;;;2.72;;
74753;SDS011;63271;53.340;-6.260;2022-10-31T11:07:40;15.45;;;2.60;;
74753;SDS011;63271;53.340;-6.260;2022-10-31T11:10:11;17.23;;;3.17;;
74753;SDS011;63271;53.340;-6.260;2022-10-31T11:12:45;13.45;;;2.97;;
74753;SDS011;63271;53.340;-6.260;2022-10-31T11:15:23;16.15;;;3.20;;
74753;SDS011;63271;53.340;-6.260;2022-10-31T11:17:51;15.68;;;2.83;;
74753;SDS011;63271;53.340;-6.260;2022-10-31T11:22:48;11.82;;;2.08;;
74753;SDS011;63271;53.340;-6.260;2022-10-31T11:25:23;13.48;;;2.28;;
74753;SDS011;63271;53.340;-6.260;2022-10-31T11:28:00;23.45;;;3.60;;
74753;SDS011;63271;53.340;-6.260;2022-10-31T11:30:29;22.25;;;2.95;;
74753;SDS011;63271;53.340;-6.260;2022-10-31T11:32:58;14.32;;;2.30;;
74753;SDS011;63271;53.340;-6.260;2022-10-31T11:35:24;12.73;;;2.50;;
74753;SDS011;63271;53.340;-6.260;2022-10-31T11:37:50;17.88;;;3.75;;
74753;SDS011;63271;53.340;-6.260;2022-10-31T11:40:33;21.02;;;2.65;;
74753;SDS011;63271;53.340;-6.260;2022-10-31T11:42:58;25.67;;;3.35;;
74753;SDS011;63271;53.340;-6.260;2022-10-31T11:45:29;18.55;;;2.63;;
74753;SDS011;63271;53.340;-6.260;2022-10-31T11:47:56;19.73;;;2.83;;
74753;SDS011;63271;53.340;-6.260;2022-10-31T11:52:57;16.33;;;3.22;;
74753;SDS011;63271;53.340;-6.260;2022-10-31T11:55:33;16.50;;;2.85;;
74753;SDS011;63271;53.340;-6.260;2022-10-31T11:58:02;12.85;;;2.58;;
74753;SDS011;63271;53.340;-6.260;2022-10-31T12:00:32;19.65;;;3.10;;
74753;SDS011;63271;53.340;-6.260;2022-10-31T12:03:12;15.80;;;2.80;;
74753;SDS011;63271;53.340;-6.260;2022-10-31T12:05:41;12.85;;;2.38;;
74753;SDS011;63271;53.340;-6.260;2022-10-31T12:08:11;13.88;;;2.42;;
74753;SDS011;63271;53.340;-6.260;2022-10-31T12:10:45;16.35;;;2.67;;
74753;SDS011;63271;53.340;-6.260;2022-10-31T12:13:33;14.73;;;2.60;;
74753;SDS011;63271;53.340;-6.260;2022-10-31T12:16:15;22.48;;;3.10;;
74753;SDS011;63271;53.340;-6.260;2022-10-31T12:24:19;16.63;;;2.75;;
74753;SDS011;63271;53.340;-6.260;2022-10-31T12:34:57;22.40;;;3.25;;
74753;SDS011;63271;53.340;-6.260;2022-10-31T12:41:42;25.70;;;3.20;;
74753;SDS011;63271;53.340;-6.260;2022-10-31T12:43:46;25.02;;;3.78;;
74753;SDS011;63271;53.340;-6.260;2022-10-31T12:52:25;17.17;;;2.70;;
74753;SDS011;63271;53.340;-6.260;2022-10-31T12:57:53;15.38;;;3.03;;
74753;SDS011;63271;53.340;-6.260;2022-10-31T13:00:25;22.30;;;2.60;;
74753;SDS011;63271;53.340;-6.260;2022-10-31T13:02:58;19.15;;;3.33;;
74753;SDS011;63271;53.340;-6.260;2022-10-31T13:05:32;18.55;;;2.83;;
74753;SDS011;63271;53.340;-6.260;2022-10-31T13:08:21;17.50;;;3.08;;
74753;SDS011;63271;53.340;-6.260;2022-10-31T13:18:55;24.60;;;3.35;;
74753;SDS011;63271;53.340;-6.260;2022-10-31T13:21:23;20.02;;;3.05;;
74753;SDS011;63271;53.340;-6.260;2022-10-31T13:23:51;20.85;;;4.07;;
74753;SDS011;63271;53.340;-6.260;2022-10-31T13:29:24;26.20;;;3.13;;
74753;SDS011;63271;53.340;-6.260;2022-10-31T13:31:58;25.60;;;3.45;;
74753;SDS011;63271;53.340;-6.260;2022-10-31T13:34:37;17.48;;;3.33;;
74753;SDS011;63271;53.340;-6.260;2022-10-31T13:43:07;25.52;;;3.25;;
74753;SDS011;63271;53.340;-6.260;2022-10-31T13:45:29;19.90;;;2.90;;
74753;SDS011;63271;53.340;-6.260;2022-10-31T13:48:40;25.00;;;3.20;;
74753;SDS011;63271;53.340;-6.260;2022-10-31T13:50:40;21.85;;;2.95;;
74753;SDS011;63271;53.340;-6.260;2022-10-31T14:01:35;16.02;;;2.95;;
74753;SDS011;63271;53.340;-6.260;2022-10-31T14:04:07;22.25;;;2.63;;
74753;SDS011;63271;53.340;-6.260;2022-10-31T14:06:45;26.27;;;3.05;;
74753;SDS011;63271;53.340;-6.260;2022-10-31T14:12:08;17.65;;;2.95;;
74753;SDS011;63271;53.340;-6.260;2022-10-31T14:17:58;14.98;;;2.50;;
74753;SDS011;63271;53.340;-6.260;2022-10-31T14:22:57;16.02;;;2.88;;
74753;SDS011;63271;53.340;-6.260;2022-10-31T14:27:59;20.30;;;3.70;;
74753;SDS011;63271;53.340;-6.260;2022-10-31T14:30:30;15.20;;;2.95;;
74753;SDS011;63271;53.340;-6.260;2022-10-31T14:33:02;25.83;;;3.42;;
74753;SDS011;63271;53.340;-6.260;2022-10-31T14:38:22;16.30;;;3.15;;
74753;SDS011;63271;53.340;-6.260;2022-10-31T14:40:52;21.08;;;2.78;;
74753;SDS011;63271;53.340;-6.260;2022-10-31T14:51:35;25.35;;;3.45;;
74753;SDS011;63271;53.340;-6.260;2022-10-31T14:54:04;17.45;;;4.15;;
74753;SDS011;63271;53.340;-6.260;2022-10-31T14:56:34;18.52;;;3.13;;
74753;SDS011;63271;53.340;-6.260;2022-10-31T14:59:13;17.60;;;3.22;;
74753;SDS011;63271;53.340;-6.260;2022-10-31T15:01:40;16.38;;;3.20;;
74753;SDS011;63271;53.340;-6.260;2022-10-31T15:04:18;13.75;;;2.58;;
74753;SDS011;63271;53.340;-6.260;2022-10-31T15:06:47;24.20;;;3.40;;
74753;SDS011;63271;53.340;-6.260;2022-10-31T15:09:23;22.48;;;3.50;;
74753;SDS011;63271;53.340;-6.260;2022-10-31T15:11:59;14.00;;;2.88;;
74753;SDS011;63271;53.340;-6.260;2022-10-31T15:14:42;22.33;;;3.42;;
74753;SDS011;63271;53.340;-6.260;2022-10-31T15:17:08;8.45;;;1.65;;
74753;SDS011;63271;53.340;-6.260;2022-10-31T15:19:36;12.65;;;2.03;;
74753;SDS011;63271;53.340;-6.260;2022-10-31T15:22:02;10.05;;;2.38;;
74753;SDS011;63271;53.340;-6.260;2022-10-31T15:24:33;13.02;;;2.38;;
74753;SDS011;63271;53.340;-6.260;2022-10-31T15:27:03;12.55;;;2.05;;
74753;SDS011;63271;53.340;-6.260;2022-10-31T15:29:30;11.60;;;2.03;;
74753;SDS011;63271;53.340;-6.260;2022-10-31T15:32:00;19.25;;;3.25;;
74753;SDS011;63271;53.340;-6.260;2022-10-31T15:34:43;17.65;;;2.60;;
74753;SDS011;63271;53.340;-6.260;2022-10-31T15:37:12;16.50;;;3.08;;
74753;SDS011;63271;53.340;-6.260;2022-10-31T15:39:44;17.63;;;3.00;;
74753;SDS011;63271;53.340;-6.260;2022-10-31T15:44:58;26.00;;;4.30;;
74753;SDS011;63271;53.340;-6.260;2022-10-31T15:47:26;22.55;;;3.22;;
74753;SDS011;63271;53.340;-6.260;2022-10-31T15:49:53;23.08;;;3.72;;
74753;SDS011;63271;53.340;-6.260;2022-10-31T15:57:39;22.80;;;3.00;;
74753;SDS011;63271;53.340;-6.260;2022-10-31T16:00:20;17.33;;;2.70;;
74753;SDS011;63271;53.340;-6.260;2022-10-31T16:02:51;17.65;;;3.60;;
74753;SDS011;63271;53.340;-6.260;2022-10-31T16:05:47;16.25;;;3.17;;
74753;SDS011;63271;53.340;-6.260;2022-10-31T16:08:23;17.27;;;3.33;;
74753;SDS011;63271;53.340;-6.260;2022-10-31T16:10:52;20.85;;;4.10;;
74753;SDS011;63271;53.340;-6.260;2022-10-31T16:13:18;16.27;;;2.63;;
74753;SDS011;63271;53.340;-6.260;2022-10-31T16:16:41;19.00;;;3.50;;
74753;SDS011;63271;53.340;-6.260;2022-10-31T16:18:47;17.67;;;3.00;;
74753;SDS011;63271;53.340;-6.260;2022-10-31T16:21:22;14.73;;;4.35;;
74753;SDS011;63271;53.340;-6.260;2022-10-31T16:23:49;18.40;;;3.05;;
74753;SDS011;63271;53.340;-6.260;2022-10-31T16:26:17;16.98;;;3.33;;
74753;SDS011;63271;53.340;-6.260;2022-10-31T16:28:50;19.25;;;3.22;;
74753;SDS011;63271;53.340;-6.260;2022-10-31T16:31:24;18.63;;;4.60;;
74753;SDS011;63271;53.340;-6.260;2022-10-31T16:34:00;16.75;;;3.30;;
74753;SDS011;63271;53.340;-6.260;2022-10-31T16:38:52;16.90;;;3.47;;
74753;SDS011;63271;53.340;-6.260;2022-10-31T16:41:21;18.10;;;3.10;;
74753;SDS011;63271;53.340;-6.260;2022-10-31T16:43:46;18.95;;;3.40;;
74753;SDS011;63271;53.340;-6.260;2022-10-31T16:46:15;18.67;;;2.90;;
74753;SDS011;63271;53.340;-6.260;2022-10-31T16:48:46;14.35;;;3.08;;
74753;SDS011;63271;53.340;-6.260;2022-10-31T16:51:16;23.48;;;4.30;;
74753;SDS011;63271;53.340;-6.260;2022-10-31T16:53:44;17.70;;;3.03;;
74753;SDS011;63271;53.340;-6.260;2022-10-31T16:56:14;15.07;;;2.85;;
74753;SDS011;63271;53.340;-6.260;2022-10-31T16:58:44;25.33;;;3.70;;
74753;SDS011;63271;53.340;-6.260;2022-10-31T17:01:10;23.20;;;3.20;;
74753;SDS011;63271;53.340;-6.260;2022-10-31T17:03:38;18.50;;;3.55;;
74753;SDS011;63271;53.340;-6.260;2022-10-31T17:06:04;19.95;;;3.63;;
74753;SDS011;63271;53.340;-6.260;2022-10-31T17:08:31;18.10;;;4.50;;
74753;SDS011;63271;53.340;-6.260;2022-10-31T17:10:58;17.40;;;4.05;;
74753;SDS011;63271;53.340;-6.260;2022-10-31T17:13:27;25.27;;;4.65;;
74753;SDS011;63271;53.340;-6.260;2022-10-31T17:15:55;19.75;;;6.88;;
74753;SDS011;63271;53.340;-6.260;2022-10-31T17:18:25;27.40;;;4.40;;
74753;SDS011;63271;53.340;-6.260;2022-10-31T17:20:58;18.02;;;3.72;;
74753;SDS011;63271;53.340;-6.260;2022-10-31T17:23:25;27.35;;;4.57;;
74753;SDS011;63271;53.340;-6.260;2022-10-31T17:25:52;23.63;;;5.18;;
74753;SDS011;63271;53.340;-6.260;2022-10-31T17:28:17;22.85;;;5.15;;
74753;SDS011;63271;53.340;-6.260;2022-10-31T17:30:43;25.45;;;5.55;;
74753;SDS011;63271;53.340;-6.260;2022-10-31T17:33:12;23.73;;;4.70;;
74753;SDS011;63271;53.340;-6.260;2022-10-31T17:35:40;21.00;;;4.32;;
74753;SDS011;63271;53.340;-6.260;2022-10-31T17:38:09;30.90;;;7.45;;
74753;SDS011;63271;53.340;-6.260;2022-10-31T17:40:35;30.45;;;6.40;;
74753;SDS011;63271;53.340;-6.260;2022-10-31T17:43:01;33.92;;;6.07;;
74753;SDS011;63271;53.340;-6.260;2022-10-31T17:45:27;41.85;;;8.63;;
74753;SDS011;63271;53.340;-6.260;2022-10-31T17:47:52;37.72;;;7.75;;
74753;SDS011;63271;53.340;-6.260;2022-10-31T17:50:19;31.50;;;6.05;;
74753;SDS011;63271;53.340;-6.260;2022-10-31T17:52:48;27.75;;;5.28;;
74753;SDS011;63271;53.340;-6.260;2022-10-31T17:55:14;27.38;;;5.38;;
74753;SDS011;63271;53.340;-6.260;2022-10-31T17:57:40;31.42;;;5.55;;
74753;SDS011;63271;53.340;-6.260;2022-10-31T18:00:12;31.05;;;5.57;;
74753;SDS011;63271;53.340;-6.260;2022-10-31T18:02:41;30.10;;;5.95;;
74753;SDS011;63271;53.340;-6.260;2022-10-31T18:05:07;38.35;;;5.80;;
74753;SDS011;63271;53.340;-6.260;2022-10-31T18:07:32;35.65;;;6.50;;
74753;SDS011;63271;53.340;-6.260;2022-10-31T18:10:00;41.45;;;11.95;;
74753;SDS011;63271;53.340;-6.260;2022-10-31T18:12:26;33.47;;;6.15;;
74753;SDS011;63271;53.340;-6.260;2022-10-31T18:14:56;37.60;;;7.57;;
74753;SDS011;63271;53.340;-6.260;2022-10-31T18:17:26;42.45;;;8.38;;
74753;SDS011;63271;53.340;-6.260;2022-10-31T18:19:51;43.83;;;7.43;;
74753;SDS011;63271;53.340;-6.260;2022-10-31T18:22:17;39.63;;;7.63;;
74753;SDS011;63271;53.340;-6.260;2022-10-31T18:24:44;40.95;;;7.03;;
74753;SDS011;63271;53.340;-6.260;2022-10-31T18:27:10;39.20;;;7.13;;
74753;SDS011;63271;53.340;-6.260;2022-10-31T18:29:40;44.03;;;8.38;;
74753;SDS011;63271;53.340;-6.260;2022-10-31T18:32:05;33.63;;;7.65;;
74753;SDS011;63271;53.340;-6.260;2022-10-31T18:34:31;53.40;;;10.57;;
74753;SDS011;63271;53.340;-6.260;2022-10-31T18:37:00;32.08;;;8.48;;
74753;SDS011;63271;53.340;-6.260;2022-10-31T18:39:27;48.45;;;10.02;;
74753;SDS011;63271;53.340;-6.260;2022-10-31T18:41:53;42.20;;;10.43;;
74753;SDS011;63271;53.340;-6.260;2022-10-31T18:44:20;70.55;;;15.75;;
74753;SDS011;63271;53.340;-6.260;2022-10-31T18:46:48;50.92;;;10.70;;
74753;SDS011;63271;53.340;-6.260;2022-10-31T18:49:13;49.67;;;10.35;;
74753;SDS011;63271;53.340;-6.260;2022-10-31T18:51:46;45.30;;;10.75;;
74753;SDS011;63271;53.340;-6.260;2022-10-31T18:54:16;47.65;;;11.05;;
74753;SDS011;63271;53.340;-6.260;2022-10-31T18:56:44;56.55;;;10.02;;
74753;SDS011;63271;53.340;-6.260;2022-10-31T18:59:12;48.22;;;9.82;;
74753;SDS011;63271;53.340;-6.260;2022-10-31T19:01:40;42.78;;;10.05;;
74753;SDS011;63271;53.340;-6.260;2022-10-31T19:04:08;42.22;;;11.73;;
74753;SDS011;63271;53.340;-6.260;2022-10-31T19:06:34;49.17;;;9.25;;
74753;SDS011;63271;53.340;-6.260;2022-10-31T19:09:01;44.15;;;8.30;;
74753;SDS011;63271;53.340;-6.260;2022-10-31T19:11:33;43.22;;;10.27;;
74753;SDS011;63271;53.340;-6.260;2022-10-31T19:13:58;42.88;;;9.65;;
74753;SDS011;63271;53.340;-6.260;2022-10-31T19:16:26;37.00;;;8.63;;
74753;SDS011;63271;53.340;-6.260;2022-10-31T19:18:52;36.03;;;8.05;;
74753;SDS011;63271;53.340;-6.260;2022-10-31T19:21:19;36.92;;;8.70;;
74753;SDS011;63271;53.340;-6.260;2022-10-31T19:23:47;41.92;;;9.02;;
74753;SDS011;63271;53.340;-6.260;2022-10-31T19:26:13;54.00;;;11.02;;
74753;SDS011;63271;53.340;-6.260;2022-10-31T19:28:39;47.63;;;10.90;;
74753;SDS011;63271;53.340;-6.260;2022-10-31T19:31:05;50.35;;;13.60;;
74753;SDS011;63271;53.340;-6.260;2022-10-31T19:33:31;62.60;;;15.65;;
74753;SDS011;63271;53.340;-6.260;2022-10-31T19:35:58;52.33;;;14.63;;
74753;SDS011;63271;53.340;-6.260;2022-10-31T19:38:27;50.50;;;14.07;;
74753;SDS011;63271;53.340;-6.260;2022-10-31T19:41:01;43.08;;;13.00;;
74753;SDS011;63271;53.340;-6.260;2022-10-31T19:43:30;44.10;;;15.00;;
74753;SDS011;63271;53.340;-6.260;2022-10-31T19:45:57;46.65;;;14.18;;
74753;SDS011;63271;53.340;-6.260;2022-10-31T19:48:23;57.70;;;15.15;;
74753;SDS011;63271;53.340;-6.260;2022-10-31T19:50:52;49.28;;;14.50;;
74753;SDS011;63271;53.340;-6.260;2022-10-31T19:53:18;57.65;;;14.30;;
74753;SDS011;63271;53.340;-6.260;2022-10-31T19:55:45;44.17;;;12.40;;
74753;SDS011;63271;53.340;-6.260;2022-10-31T19:58:11;56.58;;;13.93;;
74753;SDS011;63271;53.340;-6.260;2022-10-31T20:00:41;47.67;;;14.27;;
